EZY21VB EGKK-LIMC
Flight info
| Callsign | EZY21VB |
|---|---|
| Flight time | 2h 21m |
| Altitude | 37000 |
| Route | ODVIK Y311 DVR UL9 KONAN DCT KOK UL607 REMBA DCT RITAX DCT SUTAL DCT GTQ DCT OBORN DCT DEVDI DCT RIPUS DCT GERSA DCT SOSON DCT DEGAD DCT BASGO/N0470F290 Z424 AKASU/N0401F190 Z424 RIXUV |
| Aircraft | A320/M-SDE3FGHIRWY/LB1 |
Departure
| Time | 2026-05-05 19:26 |
|---|---|
| Airport | London Gatwick Airport (EGKK) |
Arrival
| Time | 2026-05-05 21:47 |
|---|---|
| Airport | Milan Malpensa International Airport (LIMC) |
| Time | Latitude | Longitude | Altitude | Speed | Heading |
|---|---|---|---|---|---|
| 2026-05-05 18:24 | 51.15650 | -0.17787 | 209 ft | 0 kts | 167° |
| 2026-05-05 19:16 | 51.15652 | -0.17787 | 204 ft | 2 kts | 167° |
| 2026-05-05 19:16 | 51.15673 | -0.17796 | 214 ft | 3 kts | 165° |
| 2026-05-05 19:16 | 51.15694 | -0.17802 | 211 ft | 3 kts | 185° |
| 2026-05-05 19:17 | 51.15713 | -0.17797 | 213 ft | 3 kts | 206° |
| 2026-05-05 19:17 | 51.15727 | -0.17778 | 214 ft | 3 kts | 253° |
| 2026-05-05 19:17 | 51.15730 | -0.17744 | 214 ft | 3 kts | 266° |
| 2026-05-05 19:17 | 51.15732 | -0.17724 | 212 ft | 0 kts | 258° |
| 2026-05-05 19:20 | 51.15731 | -0.17727 | 213 ft | 3 kts | 258° |
| 2026-05-05 19:20 | 51.15720 | -0.17805 | 210 ft | 14 kts | 258° |
| 2026-05-05 19:20 | 51.15690 | -0.18030 | 211 ft | 24 kts | 258° |
| 2026-05-05 19:20 | 51.15655 | -0.18284 | 206 ft | 21 kts | 257° |
| 2026-05-05 19:21 | 51.15552 | -0.18333 | 204 ft | 22 kts | 167° |
| 2026-05-05 19:21 | 51.15417 | -0.18287 | 205 ft | 18 kts | 168° |
| 2026-05-05 19:21 | 51.15289 | -0.18242 | 212 ft | 20 kts | 167° |
| 2026-05-05 19:21 | 51.15187 | -0.18289 | 214 ft | 19 kts | 258° |
| 2026-05-05 19:22 | 51.15159 | -0.18532 | 209 ft | 24 kts | 257° |
| 2026-05-05 19:22 | 51.15120 | -0.18803 | 205 ft | 26 kts | 257° |
| 2026-05-05 19:22 | 51.15083 | -0.19080 | 209 ft | 26 kts | 258° |
| 2026-05-05 19:22 | 51.15043 | -0.19369 | 213 ft | 27 kts | 257° |
| 2026-05-05 19:23 | 51.15002 | -0.19669 | 211 ft | 28 kts | 257° |
| 2026-05-05 19:23 | 51.14959 | -0.19979 | 203 ft | 29 kts | 257° |
| 2026-05-05 19:23 | 51.14914 | -0.20302 | 214 ft | 30 kts | 257° |
| 2026-05-05 19:23 | 51.14872 | -0.20607 | 206 ft | 26 kts | 258° |
| 2026-05-05 19:24 | 51.14832 | -0.20896 | 204 ft | 27 kts | 257° |
| 2026-05-05 19:24 | 51.14784 | -0.21195 | 208 ft | 29 kts | 252° |
| 2026-05-05 19:24 | 51.14732 | -0.21394 | 206 ft | 16 kts | 200° |
| 2026-05-05 19:24 | 51.14611 | -0.21325 | 206 ft | 22 kts | 161° |
| 2026-05-05 19:25 | 51.14520 | -0.21163 | 204 ft | 15 kts | 81° |
| 2026-05-05 19:25 | 51.14556 | -0.20908 | 208 ft | 50 kts | 77° |
| 2026-05-05 19:25 | 51.14680 | -0.20014 | 204 ft | 115 kts | 78° |
| 2026-05-05 19:25 | 51.14889 | -0.18492 | 224 ft | 162 kts | 77° |
| 2026-05-05 19:26 | 51.15126 | -0.16752 | 844 ft | 159 kts | 78° |
| 2026-05-05 19:26 | 51.15366 | -0.15018 | 1517 ft | 162 kts | 77° |
| 2026-05-05 19:26 | 51.15618 | -0.13209 | 1913 ft | 176 kts | 77° |
| 2026-05-05 19:26 | 51.15887 | -0.11234 | 2173 ft | 198 kts | 77° |
| 2026-05-05 19:27 | 51.16200 | -0.08955 | 2461 ft | 222 kts | 77° |
| 2026-05-05 19:27 | 51.16549 | -0.06421 | 2846 ft | 246 kts | 76° |
| 2026-05-05 19:27 | 51.16879 | -0.03685 | 3518 ft | 257 kts | 84° |
| 2026-05-05 19:27 | 51.16856 | -0.00845 | 4347 ft | 261 kts | 89° |
| 2026-05-05 19:28 | 51.16800 | 0.02071 | 5279 ft | 265 kts | 89° |
| 2026-05-05 19:28 | 51.16743 | 0.05039 | 5893 ft | 271 kts | 89° |
| 2026-05-05 19:28 | 51.16685 | 0.08048 | 6071 ft | 272 kts | 89° |
| 2026-05-05 19:28 | 51.16629 | 0.11051 | 6119 ft | 271 kts | 89° |
| 2026-05-05 19:29 | 51.16577 | 0.13829 | 6136 ft | 271 kts | 89° |
| 2026-05-05 19:29 | 51.16528 | 0.16942 | 6150 ft | 271 kts | 88° |
| 2026-05-05 19:29 | 51.16522 | 0.19940 | 6162 ft | 271 kts | 87° |
| 2026-05-05 19:29 | 51.16534 | 0.22939 | 6175 ft | 271 kts | 86° |
| 2026-05-05 19:30 | 51.16551 | 0.25936 | 6189 ft | 271 kts | 86° |
| 2026-05-05 19:30 | 51.16564 | 0.28933 | 6198 ft | 271 kts | 87° |
| 2026-05-05 19:30 | 51.16483 | 0.31947 | 6433 ft | 274 kts | 91° |
| 2026-05-05 19:30 | 51.16319 | 0.34979 | 7422 ft | 275 kts | 93° |
| 2026-05-05 19:31 | 51.16133 | 0.38050 | 8623 ft | 280 kts | 94° |
| 2026-05-05 19:31 | 51.15933 | 0.41172 | 9421 ft | 286 kts | 94° |
| 2026-05-05 19:31 | 51.15725 | 0.44352 | 10163 ft | 291 kts | 94° |
| 2026-05-05 19:31 | 51.15511 | 0.47644 | 10528 ft | 310 kts | 94° |
| 2026-05-05 19:32 | 51.15285 | 0.51184 | 10747 ft | 331 kts | 94° |
| 2026-05-05 19:32 | 51.15052 | 0.54889 | 11291 ft | 339 kts | 95° |
| 2026-05-05 19:32 | 51.14812 | 0.58643 | 11978 ft | 343 kts | 94° |
| 2026-05-05 19:32 | 51.14568 | 0.62436 | 12681 ft | 346 kts | 94° |
| 2026-05-05 19:33 | 51.14323 | 0.66213 | 13383 ft | 348 kts | 95° |
| 2026-05-05 19:33 | 51.14068 | 0.70104 | 14039 ft | 351 kts | 95° |
| 2026-05-05 19:33 | 51.13819 | 0.73900 | 14635 ft | 354 kts | 95° |
| 2026-05-05 19:33 | 51.13564 | 0.77811 | 15220 ft | 357 kts | 95° |
| 2026-05-05 19:34 | 51.13307 | 0.81755 | 15802 ft | 360 kts | 95° |
| 2026-05-05 19:34 | 51.13047 | 0.85732 | 16384 ft | 363 kts | 95° |
| 2026-05-05 19:34 | 51.12783 | 0.89765 | 16975 ft | 365 kts | 95° |
| 2026-05-05 19:35 | 51.12243 | 0.97853 | 18107 ft | 371 kts | 95° |
| 2026-05-05 19:35 | 51.11966 | 1.01952 | 18637 ft | 374 kts | 95° |
| 2026-05-05 19:35 | 51.11689 | 1.06036 | 19118 ft | 378 kts | 96° |
| 2026-05-05 19:35 | 51.11407 | 1.10215 | 19604 ft | 381 kts | 95° |
| 2026-05-05 19:36 | 51.11121 | 1.14420 | 20106 ft | 384 kts | 95° |
| 2026-05-05 19:36 | 51.10831 | 1.18663 | 20591 ft | 388 kts | 95° |
| 2026-05-05 19:36 | 51.10532 | 1.22943 | 21081 ft | 391 kts | 96° |
| 2026-05-05 19:36 | 51.10227 | 1.27258 | 21575 ft | 394 kts | 96° |
| 2026-05-05 19:37 | 51.09919 | 1.31609 | 22053 ft | 397 kts | 96° |
| 2026-05-05 19:37 | 51.09608 | 1.35996 | 22517 ft | 401 kts | 95° |
| 2026-05-05 19:37 | 51.09293 | 1.40422 | 22975 ft | 404 kts | 95° |
| 2026-05-05 19:37 | 51.08975 | 1.44878 | 23433 ft | 407 kts | 96° |
| 2026-05-05 19:38 | 51.08655 | 1.49355 | 23842 ft | 409 kts | 96° |
| 2026-05-05 19:38 | 51.08338 | 1.53803 | 24234 ft | 410 kts | 96° |
| 2026-05-05 19:38 | 51.08016 | 1.58327 | 24610 ft | 413 kts | 97° |
| 2026-05-05 19:38 | 51.07688 | 1.62867 | 24973 ft | 415 kts | 97° |
| 2026-05-05 19:39 | 51.07354 | 1.67427 | 25344 ft | 416 kts | 97° |
| 2026-05-05 19:39 | 51.07016 | 1.72011 | 25679 ft | 418 kts | 97° |
| 2026-05-05 19:39 | 51.06675 | 1.76617 | 26019 ft | 420 kts | 97° |
| 2026-05-05 19:39 | 51.06329 | 1.81245 | 26374 ft | 422 kts | 98° |
| 2026-05-05 19:40 | 51.05979 | 1.85888 | 26709 ft | 424 kts | 97° |
| 2026-05-05 19:40 | 51.05628 | 1.90553 | 27031 ft | 426 kts | 99° |
| 2026-05-05 19:40 | 51.05278 | 1.95220 | 27448 ft | 425 kts | 98° |
| 2026-05-05 19:40 | 51.04927 | 1.99889 | 27781 ft | 427 kts | 98° |
| 2026-05-05 19:41 | 51.04569 | 2.04585 | 28104 ft | 428 kts | 99° |
| 2026-05-05 19:41 | 51.04206 | 2.09279 | 28447 ft | 429 kts | 99° |
| 2026-05-05 19:41 | 51.03840 | 2.13989 | 28715 ft | 431 kts | 98° |
| 2026-05-05 19:41 | 51.03473 | 2.18726 | 29010 ft | 433 kts | 99° |
| 2026-05-05 19:42 | 51.03105 | 2.23482 | 29315 ft | 434 kts | 100° |
| 2026-05-05 19:42 | 51.02735 | 2.28247 | 29557 ft | 436 kts | 98° |
| 2026-05-05 19:42 | 51.02360 | 2.33026 | 29852 ft | 437 kts | 99° |
| 2026-05-05 19:42 | 51.01979 | 2.37815 | 30080 ft | 438 kts | 99° |
| 2026-05-05 19:43 | 51.01591 | 2.42629 | 30287 ft | 440 kts | 100° |
| 2026-05-05 19:43 | 51.01202 | 2.47448 | 30508 ft | 440 kts | 100° |
| 2026-05-05 19:43 | 51.00813 | 2.52277 | 30718 ft | 442 kts | 99° |
| 2026-05-05 19:43 | 51.00424 | 2.57115 | 30996 ft | 441 kts | 99° |
| 2026-05-05 19:44 | 51.00033 | 2.61929 | 31297 ft | 439 kts | 99° |
| 2026-05-05 19:44 | 50.99639 | 2.66734 | 31586 ft | 439 kts | 99° |
| 2026-05-05 19:44 | 50.99245 | 2.71529 | 31868 ft | 438 kts | 99° |
| 2026-05-05 19:44 | 50.98857 | 2.76251 | 32160 ft | 437 kts | 100° |
| 2026-05-05 19:45 | 50.98462 | 2.81023 | 32449 ft | 436 kts | 100° |
| 2026-05-05 19:45 | 50.98067 | 2.85786 | 32741 ft | 435 kts | 100° |
| 2026-05-05 19:45 | 50.97672 | 2.90531 | 33056 ft | 433 kts | 100° |
| 2026-05-05 19:45 | 50.97275 | 2.95259 | 33354 ft | 432 kts | 101° |
| 2026-05-05 19:46 | 50.96872 | 2.99974 | 33641 ft | 431 kts | 101° |
| 2026-05-05 19:46 | 50.96467 | 3.04679 | 33914 ft | 430 kts | 101° |
| 2026-05-05 19:46 | 50.96060 | 3.09380 | 34138 ft | 430 kts | 101° |
| 2026-05-05 19:46 | 50.95654 | 3.14078 | 34332 ft | 431 kts | 101° |
| 2026-05-05 19:47 | 50.95248 | 3.18791 | 34501 ft | 432 kts | 101° |
| 2026-05-05 19:47 | 50.94840 | 3.23507 | 34673 ft | 432 kts | 101° |
| 2026-05-05 19:47 | 50.94429 | 3.28230 | 34837 ft | 433 kts | 101° |
| 2026-05-05 19:48 | 50.93600 | 3.37655 | 34893 ft | 430 kts | 101° |
| 2026-05-05 19:48 | 50.92766 | 3.47045 | 34885 ft | 430 kts | 101° |
| 2026-05-05 19:49 | 50.91925 | 3.56369 | 34885 ft | 430 kts | 101° |
| 2026-05-05 19:49 | 50.90897 | 3.65661 | 34879 ft | 426 kts | 109° |
| 2026-05-05 19:50 | 50.89155 | 3.74647 | 34881 ft | 426 kts | 109° |
| 2026-05-05 19:50 | 50.87417 | 3.83622 | 34870 ft | 426 kts | 110° |
| 2026-05-05 19:51 | 50.85680 | 3.92596 | 34871 ft | 426 kts | 110° |
| 2026-05-05 19:51 | 50.83930 | 4.01563 | 34873 ft | 426 kts | 110° |
| 2026-05-05 19:52 | 50.82185 | 4.10468 | 34875 ft | 426 kts | 110° |
| 2026-05-05 19:52 | 50.80422 | 4.19422 | 34879 ft | 426 kts | 110° |
| 2026-05-05 19:53 | 50.78654 | 4.28359 | 34883 ft | 426 kts | 109° |
| 2026-05-05 19:53 | 50.76882 | 4.37275 | 34885 ft | 425 kts | 110° |
| 2026-05-05 19:54 | 50.75101 | 4.46177 | 34887 ft | 425 kts | 110° |
| 2026-05-05 19:54 | 50.73326 | 4.55025 | 34886 ft | 425 kts | 110° |
| 2026-05-05 19:55 | 50.71560 | 4.63859 | 34884 ft | 425 kts | 109° |
| 2026-05-05 19:55 | 50.69831 | 4.72783 | 34878 ft | 425 kts | 109° |
| 2026-05-05 19:56 | 50.68119 | 4.81691 | 34879 ft | 424 kts | 109° |
| 2026-05-05 19:56 | 50.66004 | 4.90319 | 34880 ft | 420 kts | 122° |
| 2026-05-05 19:57 | 50.62363 | 4.97399 | 34878 ft | 417 kts | 137° |
| 2026-05-05 19:57 | 50.58247 | 5.03764 | 34870 ft | 417 kts | 136° |
| 2026-05-05 19:58 | 50.54115 | 5.10166 | 34869 ft | 417 kts | 136° |
| 2026-05-05 19:58 | 50.49979 | 5.16547 | 34874 ft | 416 kts | 136° |
| 2026-05-05 19:59 | 50.45851 | 5.22897 | 34869 ft | 415 kts | 136° |
| 2026-05-05 19:59 | 50.41724 | 5.29220 | 34869 ft | 414 kts | 136° |
| 2026-05-05 20:00 | 50.37623 | 5.35497 | 34861 ft | 414 kts | 136° |
| 2026-05-05 20:00 | 50.33511 | 5.41789 | 34857 ft | 413 kts | 136° |
| 2026-05-05 20:01 | 50.29390 | 5.48058 | 34855 ft | 413 kts | 136° |
| 2026-05-05 20:01 | 50.25230 | 5.54383 | 34829 ft | 413 kts | 136° |
| 2026-05-05 20:02 | 50.21133 | 5.60580 | 34829 ft | 414 kts | 136° |
| 2026-05-05 20:02 | 50.17020 | 5.66785 | 34823 ft | 414 kts | 136° |
| 2026-05-05 20:03 | 50.12882 | 5.73018 | 34817 ft | 414 kts | 136° |
| 2026-05-05 20:03 | 50.08731 | 5.79236 | 34815 ft | 414 kts | 139° |
| 2026-05-05 20:04 | 50.04028 | 5.84354 | 34819 ft | 413 kts | 148° |
| 2026-05-05 20:04 | 49.99135 | 5.89080 | 34808 ft | 415 kts | 148° |
| 2026-05-05 20:05 | 49.94253 | 5.93788 | 34795 ft | 416 kts | 148° |
| 2026-05-05 20:05 | 49.89336 | 5.98533 | 34793 ft | 417 kts | 148° |
| 2026-05-05 20:06 | 49.84405 | 6.03272 | 34797 ft | 417 kts | 148° |
| 2026-05-05 20:06 | 49.79469 | 6.07997 | 34796 ft | 417 kts | 148° |
| 2026-05-05 20:07 | 49.75359 | 6.11926 | 34794 ft | 418 kts | 148° |
| 2026-05-05 20:07 | 49.70410 | 6.16647 | 34795 ft | 418 kts | 148° |
| 2026-05-05 20:08 | 49.65486 | 6.21339 | 34799 ft | 419 kts | 148° |
| 2026-05-05 20:08 | 49.60525 | 6.26054 | 34799 ft | 419 kts | 148° |
| 2026-05-05 20:09 | 49.55561 | 6.30761 | 34792 ft | 419 kts | 149° |
| 2026-05-05 20:09 | 49.50580 | 6.35466 | 34789 ft | 421 kts | 149° |
| 2026-05-05 20:10 | 49.45503 | 6.39964 | 34791 ft | 421 kts | 156° |
| 2026-05-05 20:10 | 49.40175 | 6.43587 | 34803 ft | 422 kts | 156° |
| 2026-05-05 20:11 | 49.34804 | 6.47241 | 34805 ft | 422 kts | 156° |
| 2026-05-05 20:11 | 49.29436 | 6.50900 | 34814 ft | 422 kts | 156° |
| 2026-05-05 20:12 | 49.24060 | 6.54542 | 34820 ft | 423 kts | 157° |
| 2026-05-05 20:12 | 49.18677 | 6.58170 | 34822 ft | 423 kts | 157° |
| 2026-05-05 20:13 | 49.13292 | 6.61799 | 34828 ft | 423 kts | 157° |
| 2026-05-05 20:13 | 49.07944 | 6.65396 | 34823 ft | 423 kts | 158° |
| 2026-05-05 20:14 | 49.02564 | 6.68995 | 34833 ft | 422 kts | 158° |
| 2026-05-05 20:14 | 48.97268 | 6.72884 | 34837 ft | 424 kts | 150° |
| 2026-05-05 20:15 | 48.92250 | 6.77582 | 34836 ft | 424 kts | 150° |
| 2026-05-05 20:15 | 48.87230 | 6.82294 | 34837 ft | 424 kts | 150° |
| 2026-05-05 20:16 | 48.82232 | 6.86963 | 34834 ft | 425 kts | 150° |
| 2026-05-05 20:16 | 48.77177 | 6.91643 | 34837 ft | 426 kts | 150° |
| 2026-05-05 20:17 | 48.72114 | 6.96327 | 34839 ft | 427 kts | 150° |
| 2026-05-05 20:17 | 48.67049 | 7.01009 | 34831 ft | 426 kts | 150° |
| 2026-05-05 20:18 | 48.62019 | 7.05647 | 34842 ft | 426 kts | 150° |
| 2026-05-05 20:18 | 48.56985 | 7.10280 | 34848 ft | 426 kts | 150° |
| 2026-05-05 20:19 | 48.51920 | 7.14925 | 34851 ft | 426 kts | 150° |
| 2026-05-05 20:19 | 48.46835 | 7.19499 | 34848 ft | 424 kts | 155° |
| 2026-05-05 20:20 | 48.41329 | 7.22541 | 34850 ft | 422 kts | 164° |
| 2026-05-05 20:20 | 48.35735 | 7.25232 | 34842 ft | 423 kts | 164° |
| 2026-05-05 20:21 | 48.30126 | 7.27942 | 34844 ft | 424 kts | 164° |
| 2026-05-05 20:21 | 48.24547 | 7.30638 | 34834 ft | 424 kts | 164° |
| 2026-05-05 20:22 | 48.18798 | 7.33406 | 34844 ft | 424 kts | 164° |
| 2026-05-05 20:22 | 48.13302 | 7.36045 | 34847 ft | 424 kts | 164° |
| 2026-05-05 20:23 | 48.07677 | 7.38736 | 34851 ft | 425 kts | 164° |
| 2026-05-05 20:23 | 48.02047 | 7.41426 | 34854 ft | 425 kts | 164° |
| 2026-05-05 20:24 | 47.96444 | 7.44097 | 34855 ft | 425 kts | 165° |
| 2026-05-05 20:24 | 47.90810 | 7.46779 | 34863 ft | 426 kts | 165° |
| 2026-05-05 20:25 | 47.85161 | 7.49454 | 34869 ft | 426 kts | 165° |
| 2026-05-05 20:25 | 47.79516 | 7.52116 | 34884 ft | 426 kts | 165° |
| 2026-05-05 20:26 | 47.74196 | 7.56039 | 34891 ft | 432 kts | 146° |
| 2026-05-05 20:26 | 47.70062 | 7.62525 | 34883 ft | 441 kts | 130° |
| 2026-05-05 20:27 | 47.66430 | 7.69855 | 34882 ft | 441 kts | 130° |
| 2026-05-05 20:27 | 47.62783 | 7.77185 | 34889 ft | 441 kts | 131° |
| 2026-05-05 20:28 | 47.59130 | 7.84499 | 34888 ft | 442 kts | 131° |
| 2026-05-05 20:28 | 47.55477 | 7.91808 | 34899 ft | 442 kts | 131° |
| 2026-05-05 20:29 | 47.51820 | 7.99119 | 34893 ft | 442 kts | 131° |
| 2026-05-05 20:29 | 47.48179 | 8.06357 | 34908 ft | 442 kts | 131° |
| 2026-05-05 20:30 | 47.44501 | 8.13634 | 34919 ft | 442 kts | 131° |
| 2026-05-05 20:30 | 47.40824 | 8.20903 | 34923 ft | 442 kts | 131° |
| 2026-05-05 20:31 | 47.37147 | 8.28168 | 34924 ft | 442 kts | 131° |
| 2026-05-05 20:31 | 47.33467 | 8.35409 | 34899 ft | 442 kts | 132° |
| 2026-05-05 20:32 | 47.29744 | 8.42608 | 34907 ft | 439 kts | 136° |
| 2026-05-05 20:32 | 47.27574 | 8.45712 | 34902 ft | 431 kts | 147° |
| 2026-05-05 20:32 | 47.25106 | 8.48140 | 34897 ft | 424 kts | 157° |
| 2026-05-05 20:33 | 47.19626 | 8.50886 | 34903 ft | 412 kts | 176° |
| 2026-05-05 20:33 | 47.13946 | 8.51743 | 34904 ft | 411 kts | 178° |
| 2026-05-05 20:34 | 47.08254 | 8.52575 | 34909 ft | 411 kts | 178° |
| 2026-05-05 20:34 | 47.02554 | 8.53413 | 34905 ft | 411 kts | 179° |
| 2026-05-05 20:35 | 46.96901 | 8.54241 | 34920 ft | 411 kts | 179° |
| 2026-05-05 20:35 | 46.91212 | 8.55059 | 34920 ft | 411 kts | 179° |
| 2026-05-05 20:36 | 46.85538 | 8.55864 | 34922 ft | 410 kts | 179° |
| 2026-05-05 20:36 | 46.79909 | 8.56673 | 34942 ft | 402 kts | 179° |
| 2026-05-05 20:36 | 46.77152 | 8.57080 | 34935 ft | 385 kts | 180° |
| 2026-05-05 20:37 | 46.74534 | 8.57467 | 34943 ft | 371 kts | 180° |
| 2026-05-05 20:37 | 46.69499 | 8.58186 | 34961 ft | 364 kts | 181° |
| 2026-05-05 20:38 | 46.64464 | 8.58887 | 34959 ft | 363 kts | 181° |
| 2026-05-05 20:38 | 46.59500 | 8.59587 | 34975 ft | 360 kts | 181° |
| 2026-05-05 20:39 | 46.54527 | 8.60115 | 34972 ft | 351 kts | 193° |
| 2026-05-05 20:39 | 46.52232 | 8.59184 | 34973 ft | 338 kts | 212° |
| 2026-05-05 20:39 | 46.50347 | 8.57216 | 34965 ft | 333 kts | 222° |
| 2026-05-05 20:40 | 46.46908 | 8.52690 | 34951 ft | 334 kts | 224° |
| 2026-05-05 20:40 | 46.43500 | 8.48149 | 34947 ft | 335 kts | 224° |
| 2026-05-05 20:41 | 46.40069 | 8.43552 | 34972 ft | 337 kts | 223° |
| 2026-05-05 20:41 | 46.36579 | 8.38815 | 34977 ft | 349 kts | 224° |
| 2026-05-05 20:41 | 46.34805 | 8.36415 | 34798 ft | 348 kts | 224° |
| 2026-05-05 20:42 | 46.33048 | 8.34037 | 34431 ft | 344 kts | 224° |
| 2026-05-05 20:42 | 46.31314 | 8.31692 | 34087 ft | 339 kts | 224° |
| 2026-05-05 20:42 | 46.29599 | 8.29381 | 33686 ft | 335 kts | 224° |
| 2026-05-05 20:42 | 46.27900 | 8.27100 | 33224 ft | 332 kts | 222° |
| 2026-05-05 20:43 | 46.26005 | 8.25313 | 32743 ft | 330 kts | 205° |
| 2026-05-05 20:43 | 46.23767 | 8.24541 | 32367 ft | 336 kts | 187° |
| 2026-05-05 20:43 | 46.21423 | 8.25019 | 31945 ft | 349 kts | 169° |
| 2026-05-05 20:43 | 46.19203 | 8.26714 | 31015 ft | 378 kts | 149° |
| 2026-05-05 20:44 | 46.17171 | 8.29117 | 30731 ft | 373 kts | 148° |
| 2026-05-05 20:44 | 46.15194 | 8.31475 | 30533 ft | 365 kts | 149° |
| 2026-05-05 20:44 | 46.13247 | 8.33780 | 30223 ft | 360 kts | 149° |
| 2026-05-05 20:44 | 46.11313 | 8.36050 | 29832 ft | 357 kts | 149° |
| 2026-05-05 20:45 | 46.07436 | 8.40541 | 28402 ft | 366 kts | 148° |
| 2026-05-05 20:45 | 46.05488 | 8.42783 | 28139 ft | 357 kts | 148° |
| 2026-05-05 20:45 | 46.03588 | 8.44989 | 27996 ft | 346 kts | 148° |
| 2026-05-05 20:46 | 46.01743 | 8.47134 | 27843 ft | 336 kts | 148° |
| 2026-05-05 20:46 | 45.99940 | 8.49223 | 27568 ft | 330 kts | 149° |
| 2026-05-05 20:46 | 45.98166 | 8.51274 | 27188 ft | 326 kts | 148° |
| 2026-05-05 20:46 | 45.96404 | 8.53308 | 26979 ft | 324 kts | 149° |
| 2026-05-05 20:47 | 45.94658 | 8.55321 | 26995 ft | 325 kts | 149° |
| 2026-05-05 20:47 | 45.92915 | 8.57328 | 26997 ft | 325 kts | 149° |
| 2026-05-05 20:47 | 45.91152 | 8.59357 | 26996 ft | 325 kts | 149° |
| 2026-05-05 20:47 | 45.89374 | 8.61357 | 26996 ft | 322 kts | 154° |
| 2026-05-05 20:48 | 45.87386 | 8.62600 | 27006 ft | 307 kts | 175° |
| 2026-05-05 20:48 | 45.85319 | 8.62729 | 27005 ft | 297 kts | 193° |
| 2026-05-05 20:48 | 45.83374 | 8.61859 | 27001 ft | 291 kts | 210° |
| 2026-05-05 20:48 | 45.81775 | 8.60175 | 27002 ft | 289 kts | 226° |
| 2026-05-05 20:49 | 45.80622 | 8.57810 | 26978 ft | 293 kts | 242° |
| 2026-05-05 20:49 | 45.80177 | 8.55972 | 26902 ft | 297 kts | 254° |
| 2026-05-05 20:49 | 45.80073 | 8.52985 | 26760 ft | 307 kts | 271° |
| 2026-05-05 20:49 | 45.80720 | 8.50010 | 26635 ft | 322 kts | 291° |
| 2026-05-05 20:50 | 45.82146 | 8.47443 | 26505 ft | 339 kts | 311° |
| 2026-05-05 20:50 | 45.83973 | 8.45277 | 26382 ft | 343 kts | 314° |
| 2026-05-05 20:50 | 45.85870 | 8.43194 | 26267 ft | 344 kts | 315° |
| 2026-05-05 20:50 | 45.87775 | 8.41171 | 26130 ft | 345 kts | 316° |
| 2026-05-05 20:51 | 45.89712 | 8.39140 | 25988 ft | 346 kts | 320° |
| 2026-05-05 20:51 | 45.91935 | 8.37719 | 26002 ft | 359 kts | 343° |
| 2026-05-05 20:51 | 45.94455 | 8.37647 | 26002 ft | 369 kts | 11° |
| 2026-05-05 20:51 | 45.96811 | 8.39110 | 26006 ft | 373 kts | 39° |
| 2026-05-05 20:52 | 45.98536 | 8.41855 | 26007 ft | 369 kts | 66° |
| 2026-05-05 20:52 | 45.99300 | 8.45288 | 25996 ft | 357 kts | 92° |
| 2026-05-05 20:52 | 45.99059 | 8.48753 | 26009 ft | 343 kts | 116° |
| 2026-05-05 20:52 | 45.97969 | 8.51680 | 26003 ft | 326 kts | 139° |
| 2026-05-05 20:53 | 45.96346 | 8.53872 | 26006 ft | 319 kts | 148° |
| 2026-05-05 20:53 | 45.94632 | 8.55831 | 26003 ft | 318 kts | 150° |
| 2026-05-05 20:53 | 45.92870 | 8.57736 | 26002 ft | 317 kts | 150° |
| 2026-05-05 20:53 | 45.91095 | 8.59619 | 26004 ft | 317 kts | 150° |
| 2026-05-05 20:54 | 45.89303 | 8.61462 | 25999 ft | 314 kts | 157° |
| 2026-05-05 20:54 | 45.87320 | 8.62535 | 26000 ft | 300 kts | 176° |
| 2026-05-05 20:54 | 45.85272 | 8.62548 | 26003 ft | 292 kts | 194° |
| 2026-05-05 20:54 | 45.83385 | 8.61578 | 25998 ft | 287 kts | 212° |
| 2026-05-05 20:55 | 45.81862 | 8.59764 | 26000 ft | 286 kts | 230° |
| 2026-05-05 20:55 | 45.80855 | 8.57294 | 26001 ft | 291 kts | 247° |
| 2026-05-05 20:55 | 45.80491 | 8.54408 | 26001 ft | 301 kts | 265° |
| 2026-05-05 20:55 | 45.80878 | 8.51409 | 26003 ft | 315 kts | 285° |
| 2026-05-05 20:56 | 45.82074 | 8.48696 | 26005 ft | 333 kts | 307° |
| 2026-05-05 20:56 | 45.83829 | 8.46525 | 26010 ft | 341 kts | 314° |
| 2026-05-05 20:56 | 45.85705 | 8.44435 | 26012 ft | 342 kts | 315° |
| 2026-05-05 20:56 | 45.87618 | 8.42381 | 26008 ft | 344 kts | 316° |
| 2026-05-05 20:57 | 45.89546 | 8.40334 | 26007 ft | 345 kts | 317° |
| 2026-05-05 20:57 | 45.91703 | 8.38748 | 26003 ft | 357 kts | 341° |
| 2026-05-05 20:57 | 45.94206 | 8.38528 | 26004 ft | 368 kts | 8° |
| 2026-05-05 20:57 | 45.96593 | 8.39896 | 26007 ft | 374 kts | 37° |
| 2026-05-05 20:58 | 45.98347 | 8.42595 | 26011 ft | 369 kts | 65° |
| 2026-05-05 20:58 | 45.99105 | 8.46023 | 26001 ft | 355 kts | 94° |
| 2026-05-05 20:58 | 45.98758 | 8.49428 | 26012 ft | 339 kts | 120° |
| 2026-05-05 20:58 | 45.97564 | 8.52224 | 26009 ft | 322 kts | 142° |
| 2026-05-05 20:59 | 45.95916 | 8.54345 | 26004 ft | 318 kts | 148° |
| 2026-05-05 20:59 | 45.94181 | 8.56314 | 26003 ft | 317 kts | 150° |
| 2026-05-05 20:59 | 45.92418 | 8.58211 | 26003 ft | 317 kts | 150° |
| 2026-05-05 20:59 | 45.90645 | 8.60089 | 26003 ft | 317 kts | 150° |
| 2026-05-05 21:00 | 45.88828 | 8.61825 | 25995 ft | 309 kts | 162° |
| 2026-05-05 21:00 | 45.86810 | 8.62633 | 26008 ft | 297 kts | 181° |
| 2026-05-05 21:00 | 45.84788 | 8.62389 | 26005 ft | 290 kts | 199° |
| 2026-05-05 21:00 | 45.82982 | 8.61179 | 26003 ft | 286 kts | 217° |
| 2026-05-05 21:01 | 45.81580 | 8.59182 | 26006 ft | 287 kts | 234° |
| 2026-05-05 21:01 | 45.80727 | 8.56590 | 26008 ft | 293 kts | 251° |
| 2026-05-05 21:01 | 45.80548 | 8.53673 | 26004 ft | 304 kts | 270° |
| 2026-05-05 21:01 | 45.81143 | 8.50710 | 26007 ft | 320 kts | 291° |
| 2026-05-05 21:02 | 45.82544 | 8.48149 | 26007 ft | 337 kts | 311° |
| 2026-05-05 21:02 | 45.84370 | 8.45994 | 26008 ft | 341 kts | 314° |
| 2026-05-05 21:02 | 45.86255 | 8.43915 | 26012 ft | 343 kts | 316° |
| 2026-05-05 21:02 | 45.88170 | 8.41866 | 26007 ft | 344 kts | 316° |
| 2026-05-05 21:03 | 45.90120 | 8.39843 | 25920 ft | 348 kts | 322° |
| 2026-05-05 21:03 | 45.92408 | 8.38600 | 25720 ft | 360 kts | 348° |
| 2026-05-05 21:03 | 45.94883 | 8.38822 | 25469 ft | 368 kts | 17° |
| 2026-05-05 21:03 | 45.97109 | 8.40588 | 25222 ft | 368 kts | 46° |
| 2026-05-05 21:04 | 45.98568 | 8.43530 | 24983 ft | 358 kts | 74° |
| 2026-05-05 21:04 | 45.99008 | 8.46910 | 24740 ft | 343 kts | 100° |
| 2026-05-05 21:04 | 45.98493 | 8.50144 | 24507 ft | 325 kts | 123° |
| 2026-05-05 21:04 | 45.97230 | 8.52718 | 24268 ft | 309 kts | 144° |
| 2026-05-05 21:05 | 45.95607 | 8.54707 | 24036 ft | 306 kts | 148° |
| 2026-05-05 21:05 | 45.93929 | 8.56577 | 23800 ft | 304 kts | 149° |
| 2026-05-05 21:05 | 45.92240 | 8.58390 | 23559 ft | 303 kts | 150° |
| 2026-05-05 21:05 | 45.90555 | 8.60184 | 23290 ft | 302 kts | 150° |
| 2026-05-05 21:06 | 45.88816 | 8.61820 | 23007 ft | 293 kts | 163° |
| 2026-05-05 21:06 | 45.86886 | 8.62501 | 22733 ft | 282 kts | 182° |
| 2026-05-05 21:06 | 45.84972 | 8.62135 | 22461 ft | 277 kts | 201° |
| 2026-05-05 21:06 | 45.83303 | 8.60819 | 22193 ft | 274 kts | 220° |
| 2026-05-05 21:07 | 45.82092 | 8.58769 | 22013 ft | 277 kts | 238° |
| 2026-05-05 21:07 | 45.81457 | 8.56150 | 22000 ft | 284 kts | 257° |
| 2026-05-05 21:07 | 45.81539 | 8.53276 | 22003 ft | 297 kts | 278° |
| 2026-05-05 21:07 | 45.82430 | 8.50555 | 22006 ft | 312 kts | 302° |
| 2026-05-05 21:08 | 45.84033 | 8.48368 | 22010 ft | 322 kts | 314° |
| 2026-05-05 21:08 | 45.85802 | 8.46376 | 22014 ft | 324 kts | 316° |
| 2026-05-05 21:08 | 45.87606 | 8.44426 | 22008 ft | 325 kts | 317° |
| 2026-05-05 21:08 | 45.89423 | 8.42486 | 21940 ft | 326 kts | 317° |
| 2026-05-05 21:09 | 45.91365 | 8.40786 | 21802 ft | 333 kts | 336° |
| 2026-05-05 21:09 | 45.93671 | 8.40288 | 21666 ft | 342 kts | 4° |
| 2026-05-05 21:09 | 45.95935 | 8.41311 | 21538 ft | 344 kts | 33° |
| 2026-05-05 21:09 | 45.97622 | 8.43636 | 21406 ft | 341 kts | 62° |
| 2026-05-05 21:10 | 45.98424 | 8.46766 | 21274 ft | 331 kts | 90° |
| 2026-05-05 21:10 | 45.98243 | 8.49975 | 21143 ft | 320 kts | 111° |
| 2026-05-05 21:10 | 45.97504 | 8.52971 | 20997 ft | 317 kts | 120° |
| 2026-05-05 21:10 | 45.96617 | 8.55863 | 20998 ft | 316 kts | 122° |
| 2026-05-05 21:11 | 45.95405 | 8.58418 | 21000 ft | 304 kts | 142° |
| 2026-05-05 21:11 | 45.93732 | 8.60153 | 21002 ft | 293 kts | 161° |
| 2026-05-05 21:11 | 45.91810 | 8.60947 | 21006 ft | 285 kts | 178° |
| 2026-05-05 21:11 | 45.89840 | 8.61328 | 21002 ft | 289 kts | 169° |
| 2026-05-05 21:12 | 45.87993 | 8.62515 | 21002 ft | 298 kts | 149° |
| 2026-05-05 21:12 | 45.86436 | 8.64553 | 21005 ft | 304 kts | 142° |
| 2026-05-05 21:12 | 45.84865 | 8.66507 | 21005 ft | 302 kts | 147° |
| 2026-05-05 21:12 | 45.83247 | 8.68416 | 20999 ft | 300 kts | 147° |
| 2026-05-05 21:13 | 45.81642 | 8.70314 | 20993 ft | 298 kts | 147° |
| 2026-05-05 21:13 | 45.80040 | 8.72199 | 21005 ft | 298 kts | 147° |
| 2026-05-05 21:13 | 45.78456 | 8.74054 | 21001 ft | 298 kts | 147° |
| 2026-05-05 21:13 | 45.76851 | 8.75913 | 21000 ft | 297 kts | 150° |
| 2026-05-05 21:14 | 45.75118 | 8.77437 | 21000 ft | 291 kts | 158° |
| 2026-05-05 21:14 | 45.73326 | 8.78811 | 21002 ft | 291 kts | 158° |
| 2026-05-05 21:14 | 45.71539 | 8.80181 | 21006 ft | 291 kts | 158° |
| 2026-05-05 21:14 | 45.69752 | 8.81551 | 20998 ft | 291 kts | 158° |
| 2026-05-05 21:15 | 45.67968 | 8.82918 | 21005 ft | 291 kts | 158° |
| 2026-05-05 21:15 | 45.66207 | 8.84269 | 21006 ft | 291 kts | 158° |
| 2026-05-05 21:15 | 45.64422 | 8.85639 | 21002 ft | 291 kts | 158° |
| 2026-05-05 21:15 | 45.62636 | 8.87011 | 20998 ft | 291 kts | 158° |
| 2026-05-05 21:16 | 45.60852 | 8.88379 | 21005 ft | 291 kts | 158° |
| 2026-05-05 21:16 | 45.59119 | 8.89899 | 21005 ft | 298 kts | 145° |
| 2026-05-05 21:16 | 45.57830 | 8.92277 | 20999 ft | 313 kts | 120° |
| 2026-05-05 21:16 | 45.57335 | 8.95351 | 21005 ft | 328 kts | 94° |
| 2026-05-05 21:17 | 45.57859 | 8.98559 | 20998 ft | 340 kts | 64° |
| 2026-05-05 21:17 | 45.59368 | 9.01146 | 20986 ft | 344 kts | 33° |
| 2026-05-05 21:17 | 45.61486 | 9.02727 | 21005 ft | 345 kts | 22° |
| 2026-05-05 21:17 | 45.63663 | 9.04097 | 20999 ft | 345 kts | 21° |
| 2026-05-05 21:18 | 45.65891 | 9.05371 | 20994 ft | 343 kts | 10° |
| 2026-05-05 21:18 | 45.68214 | 9.05500 | 20848 ft | 330 kts | 340° |
| 2026-05-05 21:18 | 45.70200 | 9.04180 | 20593 ft | 306 kts | 312° |
| 2026-05-05 21:18 | 45.71504 | 9.01918 | 20358 ft | 289 kts | 288° |
| 2026-05-05 21:19 | 45.72033 | 8.99240 | 20106 ft | 275 kts | 266° |
| 2026-05-05 21:19 | 45.71808 | 8.96591 | 19862 ft | 266 kts | 246° |
| 2026-05-05 21:19 | 45.70935 | 8.94314 | 19617 ft | 261 kts | 227° |
| 2026-05-05 21:19 | 45.69558 | 8.92658 | 19376 ft | 260 kts | 210° |
| 2026-05-05 21:20 | 45.67945 | 8.91484 | 19090 ft | 261 kts | 206° |
| 2026-05-05 21:20 | 45.66308 | 8.90439 | 18857 ft | 260 kts | 205° |
| 2026-05-05 21:20 | 45.64644 | 8.89425 | 18600 ft | 261 kts | 205° |
| 2026-05-05 21:20 | 45.62969 | 8.88409 | 18234 ft | 261 kts | 205° |
| 2026-05-05 21:21 | 45.61281 | 8.87436 | 17825 ft | 263 kts | 197° |
| 2026-05-05 21:21 | 45.59447 | 8.87307 | 17420 ft | 270 kts | 172° |
| 2026-05-05 21:21 | 45.57719 | 8.88431 | 17023 ft | 282 kts | 144° |
| 2026-05-05 21:21 | 45.56535 | 8.90701 | 16632 ft | 295 kts | 114° |
| 2026-05-05 21:22 | 45.56293 | 8.93630 | 16249 ft | 306 kts | 82° |
| 2026-05-05 21:22 | 45.57152 | 8.96400 | 15861 ft | 310 kts | 49° |
| 2026-05-05 21:22 | 45.58868 | 8.98209 | 15493 ft | 309 kts | 23° |
| 2026-05-05 21:22 | 45.60836 | 8.99456 | 15109 ft | 309 kts | 21° |
| 2026-05-05 21:23 | 45.62781 | 9.00654 | 14744 ft | 300 kts | 21° |
| 2026-05-05 21:23 | 45.64678 | 9.01817 | 14373 ft | 293 kts | 21° |
| 2026-05-05 21:23 | 45.66602 | 9.02585 | 13944 ft | 284 kts | 358° |
| 2026-05-05 21:23 | 45.68498 | 9.02050 | 13570 ft | 276 kts | 328° |
| 2026-05-05 21:24 | 45.69943 | 9.00376 | 13304 ft | 264 kts | 302° |
| 2026-05-05 21:24 | 45.70682 | 8.98046 | 12817 ft | 255 kts | 275° |
| 2026-05-05 21:24 | 45.70608 | 8.95569 | 12303 ft | 249 kts | 251° |
| 2026-05-05 21:24 | 45.69816 | 8.93411 | 11790 ft | 245 kts | 227° |
| 2026-05-05 21:25 | 45.68481 | 8.91933 | 11301 ft | 244 kts | 207° |
| 2026-05-05 21:25 | 45.66943 | 8.90886 | 10905 ft | 245 kts | 205° |
| 2026-05-05 21:25 | 45.65407 | 8.89921 | 10519 ft | 245 kts | 204° |
| 2026-05-05 21:25 | 45.63843 | 8.88960 | 10135 ft | 246 kts | 203° |
| 2026-05-05 21:26 | 45.62285 | 8.88004 | 9997 ft | 242 kts | 204° |
| 2026-05-05 21:26 | 45.60681 | 8.87296 | 10000 ft | 244 kts | 184° |
| 2026-05-05 21:26 | 45.59015 | 8.87704 | 10002 ft | 248 kts | 156° |
| 2026-05-05 21:26 | 45.57683 | 8.89263 | 10003 ft | 253 kts | 126° |
| 2026-05-05 21:27 | 45.57061 | 8.91619 | 10001 ft | 259 kts | 96° |
| 2026-05-05 21:27 | 45.57373 | 8.94143 | 9998 ft | 264 kts | 63° |
| 2026-05-05 21:27 | 45.58584 | 8.96091 | 9997 ft | 266 kts | 30° |
| 2026-05-05 21:27 | 45.60257 | 8.97219 | 9998 ft | 267 kts | 22° |
| 2026-05-05 21:28 | 45.61941 | 8.98267 | 10004 ft | 268 kts | 23° |
| 2026-05-05 21:28 | 45.63626 | 8.99318 | 10001 ft | 268 kts | 23° |
| 2026-05-05 21:28 | 45.65339 | 9.00368 | 10000 ft | 268 kts | 18° |
| 2026-05-05 21:28 | 45.67156 | 9.00636 | 9999 ft | 263 kts | 346° |
| 2026-05-05 21:29 | 45.68770 | 8.99535 | 10002 ft | 257 kts | 314° |
| 2026-05-05 21:29 | 45.69733 | 8.97455 | 10002 ft | 251 kts | 283° |
| 2026-05-05 21:29 | 45.69835 | 8.95022 | 10003 ft | 245 kts | 254° |
| 2026-05-05 21:29 | 45.69104 | 8.92857 | 9917 ft | 243 kts | 227° |
| 2026-05-05 21:30 | 45.67752 | 8.91452 | 9774 ft | 242 kts | 205° |
| 2026-05-05 21:30 | 45.66209 | 8.90449 | 9643 ft | 244 kts | 204° |
| 2026-05-05 21:30 | 45.64650 | 8.89475 | 9515 ft | 245 kts | 204° |
| 2026-05-05 21:30 | 45.63089 | 8.88509 | 9380 ft | 245 kts | 204° |
| 2026-05-05 21:31 | 45.61514 | 8.87559 | 9249 ft | 245 kts | 198° |
| 2026-05-05 21:31 | 45.59834 | 8.87327 | 9114 ft | 246 kts | 171° |
| 2026-05-05 21:31 | 45.58258 | 8.88284 | 8983 ft | 250 kts | 143° |
| 2026-05-05 21:31 | 45.57185 | 8.90240 | 8855 ft | 256 kts | 114° |
| 2026-05-05 21:32 | 45.56925 | 8.92746 | 8722 ft | 261 kts | 83° |
| 2026-05-05 21:32 | 45.57431 | 8.95247 | 8592 ft | 264 kts | 69° |
| 2026-05-05 21:32 | 45.58446 | 8.97412 | 8460 ft | 265 kts | 38° |
| 2026-05-05 21:32 | 45.60066 | 8.98659 | 8334 ft | 267 kts | 23° |
| 2026-05-05 21:33 | 45.61765 | 8.99743 | 8209 ft | 268 kts | 24° |
| 2026-05-05 21:33 | 45.63459 | 9.00850 | 8086 ft | 267 kts | 24° |
| 2026-05-05 21:33 | 45.65131 | 9.01941 | 7988 ft | 267 kts | 24° |
| 2026-05-05 21:33 | 45.66823 | 9.03035 | 7986 ft | 267 kts | 24° |
| 2026-05-05 21:34 | 45.68525 | 9.04125 | 7996 ft | 268 kts | 24° |
| 2026-05-05 21:34 | 45.69654 | 9.04846 | 7996 ft | 269 kts | 24° |
| 2026-05-05 21:34 | 45.71358 | 9.05930 | 7995 ft | 269 kts | 24° |
| 2026-05-05 21:34 | 45.73139 | 9.06716 | 7994 ft | 267 kts | 3° |
| 2026-05-05 21:35 | 45.74956 | 9.06338 | 7901 ft | 264 kts | 334° |
| 2026-05-05 21:35 | 45.76416 | 9.04826 | 7760 ft | 259 kts | 307° |
| 2026-05-05 21:35 | 45.77233 | 9.02568 | 7606 ft | 255 kts | 280° |
| 2026-05-05 21:35 | 45.77267 | 9.00069 | 7461 ft | 252 kts | 255° |
| 2026-05-05 21:36 | 45.76547 | 8.97817 | 7324 ft | 249 kts | 230° |
| 2026-05-05 21:36 | 45.75256 | 8.96249 | 7199 ft | 247 kts | 207° |
| 2026-05-05 21:36 | 45.73707 | 8.95171 | 7072 ft | 247 kts | 204° |
| 2026-05-05 21:36 | 45.72136 | 8.94173 | 6958 ft | 247 kts | 203° |
| 2026-05-05 21:37 | 45.70559 | 8.93198 | 6824 ft | 247 kts | 203° |
| 2026-05-05 21:37 | 45.68984 | 8.92226 | 6709 ft | 245 kts | 203° |
| 2026-05-05 21:37 | 45.67452 | 8.91276 | 6578 ft | 237 kts | 203° |
| 2026-05-05 21:37 | 45.65945 | 8.90337 | 6464 ft | 236 kts | 203° |
| 2026-05-05 21:38 | 45.64447 | 8.89398 | 6339 ft | 235 kts | 203° |
| 2026-05-05 21:38 | 45.62951 | 8.88458 | 6205 ft | 235 kts | 202° |
| 2026-05-05 21:38 | 45.61378 | 8.87923 | 6096 ft | 233 kts | 180° |
| 2026-05-05 21:38 | 45.59777 | 8.88262 | 6006 ft | 233 kts | 168° |
| 2026-05-05 21:39 | 45.58184 | 8.88720 | 6009 ft | 234 kts | 169° |
| 2026-05-05 21:39 | 45.56588 | 8.89148 | 6010 ft | 234 kts | 170° |
| 2026-05-05 21:39 | 45.54991 | 8.89570 | 6009 ft | 233 kts | 170° |
| 2026-05-05 21:39 | 45.53392 | 8.89993 | 6008 ft | 234 kts | 170° |
| 2026-05-05 21:40 | 45.51796 | 8.90420 | 6007 ft | 234 kts | 170° |
| 2026-05-05 21:40 | 45.50200 | 8.90852 | 6007 ft | 234 kts | 170° |
| 2026-05-05 21:40 | 45.48602 | 8.91286 | 6006 ft | 234 kts | 170° |
| 2026-05-05 21:40 | 45.47009 | 8.91718 | 6003 ft | 229 kts | 170° |
| 2026-05-05 21:41 | 45.45496 | 8.92126 | 5982 ft | 215 kts | 171° |
| 2026-05-05 21:41 | 45.44040 | 8.92002 | 5928 ft | 211 kts | 202° |
| 2026-05-05 21:41 | 45.42920 | 8.90738 | 5881 ft | 212 kts | 234° |
| 2026-05-05 21:41 | 45.42427 | 8.88776 | 5817 ft | 216 kts | 267° |
| 2026-05-05 21:42 | 45.42766 | 8.86683 | 5345 ft | 222 kts | 296° |
| 2026-05-05 21:42 | 45.43584 | 8.84807 | 4841 ft | 224 kts | 303° |
| 2026-05-05 21:42 | 45.44471 | 8.82963 | 4300 ft | 227 kts | 303° |
| 2026-05-05 21:42 | 45.45351 | 8.81149 | 4042 ft | 219 kts | 304° |
| 2026-05-05 21:43 | 45.46216 | 8.79375 | 3842 ft | 217 kts | 307° |
| 2026-05-05 21:43 | 45.47336 | 8.77956 | 3579 ft | 216 kts | 331° |
| 2026-05-05 21:43 | 45.48750 | 8.77273 | 3318 ft | 216 kts | 350° |
| 2026-05-05 21:43 | 45.50198 | 8.76880 | 3053 ft | 206 kts | 350° |
| 2026-05-05 21:44 | 45.51572 | 8.76505 | 2780 ft | 195 kts | 350° |
| 2026-05-05 21:44 | 45.52833 | 8.76158 | 2503 ft | 179 kts | 350° |
| 2026-05-05 21:44 | 45.54004 | 8.75835 | 2299 ft | 163 kts | 351° |
| 2026-05-05 21:44 | 45.55083 | 8.75538 | 2071 ft | 153 kts | 351° |
| 2026-05-05 21:45 | 45.56115 | 8.75254 | 1869 ft | 150 kts | 351° |
| 2026-05-05 21:45 | 45.57132 | 8.74975 | 1662 ft | 148 kts | 351° |
| 2026-05-05 21:45 | 45.58128 | 8.74700 | 1449 ft | 144 kts | 351° |
| 2026-05-05 21:45 | 45.59100 | 8.74432 | 1260 ft | 141 kts | 350° |
| 2026-05-05 21:46 | 45.60051 | 8.74170 | 1072 ft | 138 kts | 349° |
| 2026-05-05 21:46 | 45.60996 | 8.73902 | 870 ft | 138 kts | 349° |
| 2026-05-05 21:46 | 45.61930 | 8.73645 | 752 ft | 136 kts | 349° |
| 2026-05-05 21:46 | 45.62689 | 8.73439 | 746 ft | 85 kts | 348° |
| 2026-05-05 21:47 | 45.63093 | 8.73298 | 742 ft | 29 kts | 328° |
| 2026-05-05 21:47 | 45.63234 | 8.73119 | 750 ft | 24 kts | 309° |
| 2026-05-05 21:47 | 45.63311 | 8.72964 | 752 ft | 14 kts | 304° |
| 2026-05-05 21:47 | 45.63354 | 8.72873 | 751 ft | 7 kts | 304° |
| 2026-05-05 21:48 | 45.63370 | 8.72839 | 749 ft | 2 kts | 304° |
| 2026-05-05 21:48 | 45.63375 | 8.72828 | 750 ft | 5 kts | 304° |
| 2026-05-05 21:48 | 45.63396 | 8.72785 | 749 ft | 8 kts | 304° |
| 2026-05-05 21:48 | 45.63427 | 8.72733 | 752 ft | 9 kts | 318° |
| 2026-05-05 21:49 | 45.63509 | 8.72689 | 752 ft | 11 kts | 349° |
| 2026-05-05 21:49 | 45.63573 | 8.72672 | 752 ft | 7 kts | 349° |
| 2026-05-05 21:49 | 45.63656 | 8.72647 | 751 ft | 21 kts | 349° |
| 2026-05-05 21:49 | 45.63795 | 8.72610 | 752 ft | 19 kts | 349° |
| 2026-05-05 21:50 | 45.63919 | 8.72575 | 751 ft | 17 kts | 349° |
| 2026-05-05 21:50 | 45.64028 | 8.72541 | 752 ft | 16 kts | 342° |
| 2026-05-05 21:50 | 45.64148 | 8.72503 | 750 ft | 17 kts | 348° |
| 2026-05-05 21:50 | 45.64261 | 8.72471 | 750 ft | 16 kts | 349° |
| 2026-05-05 21:51 | 45.64361 | 8.72440 | 749 ft | 14 kts | 348° |
| 2026-05-05 21:51 | 45.64441 | 8.72404 | 747 ft | 11 kts | 302° |
| 2026-05-05 21:51 | 45.64427 | 8.72267 | 752 ft | 16 kts | 258° |
| 2026-05-05 21:51 | 45.64459 | 8.72140 | 751 ft | 14 kts | 322° |
| 2026-05-05 21:52 | 45.64624 | 8.72085 | 749 ft | 10 kts | 349° |
| 2026-05-05 21:52 | 45.64684 | 8.72081 | 751 ft | 5 kts | 18° |
| 2026-05-05 21:52 | 45.64712 | 8.72110 | 749 ft | 3 kts | 40° |
| 2026-05-05 21:53 | 45.64730 | 8.72132 | 752 ft | 4 kts | 39° |
| 2026-05-05 21:53 | 45.64734 | 8.72136 | 752 ft | 0 kts | 39° |